Time;durP1;ratioP1;P1;durP2;ratioP2;P2;SDS_P1;SDS_P2;PMS_P1;PMS_P2;Temp;Humidity;BMP_temperature;BMP_pressure;BME280_temperature;BME280_humidity;BME280_pressure;Samples;Min_cycle;Max_cycle;Signal;HPM_P1;HPM_P2
2022/04/01 00:01:03;;;;;;;4.15;3.85;;;;;;;;;;4979654;28;99858;-85
2022/04/01 00:03:38;;;;;;;4.95;4.47;;;;;;;;;;4981863;28;92519;-82
2022/04/01 00:06:08;;;;;;;5.00;4.50;;;;;;;;;;4980641;28;96701;-82
2022/04/01 00:08:40;;;;;;;4.95;4.28;;;;;;;;;;4980927;28;97130;-83
2022/04/01 00:11:13;;;;;;;5.30;4.80;;;;;;;;;;4997418;28;92497;-81
2022/04/01 00:13:42;;;;;;;5.07;4.68;;;;;;;;;;4997063;28;93787;-82
2022/04/01 00:16:08;;;;;;;4.25;3.95;;;;;;;;;;4998108;28;94374;-82
2022/04/01 00:18:35;;;;;;;4.50;4.10;;;;;;;;;;5000760;28;92259;-82
2022/04/01 00:21:02;;;;;;;5.32;4.93;;;;;;;;;;4997805;28;93424;-82
2022/04/01 00:23:29;;;;;;;6.05;4.45;;;;;;;;;;4996778;28;92460;-81
2022/04/01 00:25:55;;;;;;;5.57;5.10;;;;;;;;;;4995207;28;94695;-82
2022/04/01 00:28:22;;;;;;;4.47;4.18;;;;;;;;;;4996410;28;95618;-78
2022/04/01 00:30:48;;;;;;;4.43;4.03;;;;;;;;;;4998217;28;93240;-79
2022/04/01 00:33:16;;;;;;;8.07;4.88;;;;;;;;;;4996470;28;96081;-78
2022/04/01 00:35:43;;;;;;;5.35;4.85;;;;;;;;;;4997675;28;94011;-78
2022/04/01 00:38:09;;;;;;;5.40;4.90;;;;;;;;;;4996703;28;92131;-78
2022/04/01 00:40:37;;;;;;;5.03;4.63;;;;;;;;;;4999131;28;93720;-77
2022/04/01 00:43:03;;;;;;;6.72;4.90;;;;;;;;;;4998380;28;91721;-77
2022/04/01 00:45:29;;;;;;;4.68;4.28;;;;;;;;;;4997793;28;92684;-78
2022/04/01 00:48:01;;;;;;;5.35;4.85;;;;;;;;;;4996217;28;94432;-77
2022/04/01 00:50:30;;;;;;;5.25;4.85;;;;;;;;;;4996141;28;94793;-78
2022/04/01 00:52:56;;;;;;;5.63;4.65;;;;;;;;;;4997409;28;96134;-77
2022/04/01 00:55:23;;;;;;;5.20;4.80;;;;;;;;;;4997243;28;93452;-77
2022/04/01 00:57:49;;;;;;;4.95;4.55;;;;;;;;;;4996925;28;92325;-77
2022/04/01 01:00:17;;;;;;;5.70;5.20;;;;;;;;;;5000686;28;93716;-77
2022/04/01 01:02:45;;;;;;;4.00;3.70;;;;;;;;;;4996521;28;92293;-77
2022/04/01 01:05:11;;;;;;;5.43;4.97;;;;;;;;;;4997853;28;92613;-77
2022/04/01 01:07:42;;;;;;;5.30;4.80;;;;;;;;;;4997618;28;93743;-78
2022/04/01 01:10:10;;;;;;;5.65;5.15;;;;;;;;;;4996464;28;92463;-77
2022/04/01 01:12:37;;;;;;;5.75;5.20;;;;;;;;;;4994975;28;93568;-77
2022/04/01 01:15:11;;;;;;;6.25;5.55;;;;;;;;;;4994434;28;97076;-78
2022/04/01 01:17:39;;;;;;;6.97;4.68;;;;;;;;;;4996151;28;92451;-78
2022/04/01 01:20:12;;;;;;;4.78;4.45;;;;;;;;;;4997079;28;93032;-78
2022/04/01 01:22:40;;;;;;;6.10;5.53;;;;;;;;;;4998798;28;96103;-78
2022/04/01 01:25:07;;;;;;;7.28;5.00;;;;;;;;;;4995844;28;94948;-77
2022/04/01 01:27:34;;;;;;;5.63;5.10;;;;;;;;;;4995827;28;94479;-77
2022/04/01 01:30:02;;;;;;;5.30;4.75;;;;;;;;;;4996103;28;93427;-78
2022/04/01 01:32:29;;;;;;;5.00;4.60;;;;;;;;;;4997525;28;93219;-78
2022/04/01 01:34:56;;;;;;;4.80;4.50;;;;;;;;;;4995441;28;94186;-78
2022/04/01 01:37:22;;;;;;;6.13;5.63;;;;;;;;;;4995797;28;92563;-78
2022/04/01 01:39:49;;;;;;;5.93;5.43;;;;;;;;;;4994115;28;94834;-78
2022/04/01 01:42:15;;;;;;;7.10;5.43;;;;;;;;;;4979795;28;95557;-78
2022/04/01 01:44:42;;;;;;;4.63;4.32;;;;;;;;;;4999362;28;92223;-78
2022/04/01 01:47:08;;;;;;;5.43;4.93;;;;;;;;;;4998568;28;94494;-78
2022/04/01 01:49:34;;;;;;;5.13;4.72;;;;;;;;;;4999236;28;92363;-78
2022/04/01 01:54:50;;;;;;;6.43;4.70;;;;;;;;;;5000452;28;93061;-77
2022/04/01 01:57:19;;;;;;;5.15;4.75;;;;;;;;;;4999893;28;91607;-77
2022/04/01 01:59:46;;;;;;;5.55;5.05;;;;;;;;;;4999085;28;93932;-77
2022/04/01 02:02:13;;;;;;;5.25;4.72;;;;;;;;;;4998929;28;95979;-76
2022/04/01 02:04:40;;;;;;;7.38;4.80;;;;;;;;;;4999136;28;94620;-77
2022/04/01 02:07:08;;;;;;;5.32;4.80;;;;;;;;;;5001931;28;98245;-77
2022/04/01 02:09:34;;;;;;;5.78;4.57;;;;;;;;;;5000518;28;92295;-76
2022/04/01 02:12:01;;;;;;;4.78;4.38;;;;;;;;;;4999255;28;95788;-76
2022/04/01 02:14:30;;;;;;;4.53;4.22;;;;;;;;;;4998388;28;96682;-77
2022/04/01 02:16:57;;;;;;;5.15;4.75;;;;;;;;;;4999013;28;92473;-77
2022/04/01 02:19:24;;;;;;;4.93;4.43;;;;;;;;;;5001346;28;93596;-76
2022/04/01 02:21:51;;;;;;;6.18;4.95;;;;;;;;;;5001758;28;94299;-77
2022/04/01 02:24:19;;;;;;;5.38;4.95;;;;;;;;;;5018067;28;92460;-77
2022/04/01 02:26:47;;;;;;;4.88;4.47;;;;;;;;;;5018122;28;92697;-77
2022/04/01 02:29:15;;;;;;;5.45;4.57;;;;;;;;;;5019044;28;98255;-75
2022/04/01 02:32:03;;;;;;;5.05;4.63;;;;;;;;;;5017809;28;96600;-76
2022/04/01 02:34:48;;;;;;;5.78;4.95;;;;;;;;;;5016854;28;93539;-77
2022/04/01 02:37:14;;;;;;;6.05;4.43;;;;;;;;;;5017550;28;92344;-76
2022/04/01 02:39:41;;;;;;;6.70;4.47;;;;;;;;;;5017312;28;92476;-76
2022/04/01 02:42:09;;;;;;;4.38;3.92;;;;;;;;;;5017033;28;95549;-76
2022/04/01 02:44:35;;;;;;;4.32;4.03;;;;;;;;;;5000637;28;92515;-76
2022/04/01 02:47:03;;;;;;;5.63;5.13;;;;;;;;;;5001468;28;94953;-77
2022/04/01 02:49:30;;;;;;;4.57;4.28;;;;;;;;;;5015551;28;95997;-76
2022/04/01 02:51:58;;;;;;;5.07;4.68;;;;;;;;;;5000752;28;92476;-77
2022/04/01 02:54:25;;;;;;;4.70;4.30;;;;;;;;;;4996548;28;98631;-76
2022/04/01 02:56:53;;;;;;;4.07;3.78;;;;;;;;;;4998174;28;92308;-76
2022/04/01 02:59:20;;;;;;;4.25;3.85;;;;;;;;;;4998406;28;95186;-76
2022/04/01 03:01:47;;;;;;;3.97;3.60;;;;;;;;;;4999295;28;93490;-76
2022/04/01 03:04:14;;;;;;;4.57;3.80;;;;;;;;;;4998077;28;92802;-76
2022/04/01 03:06:50;;;;;;;4.22;3.45;;;;;;;;;;4998112;28;95843;-76
2022/04/01 03:09:16;;;;;;;6.85;4.60;;;;;;;;;;4997879;28;96048;-76
2022/04/01 03:11:54;;;;;;;5.03;4.68;;;;;;;;;;5001413;28;91743;-77
2022/04/01 03:14:41;;;;;;;10.00;4.50;;;;;;;;;;4997895;28;96090;-77
2022/04/01 03:17:26;;;;;;;3.97;3.58;;;;;;;;;;4996692;28;92366;-77
2022/04/01 03:19:53;;;;;;;3.63;3.33;;;;;;;;;;4997686;28;94773;-78
2022/04/01 03:22:20;;;;;;;4.03;3.70;;;;;;;;;;4997604;28;94845;-77
2022/04/01 03:24:47;;;;;;;4.10;3.67;;;;;;;;;;4997853;28;92420;-77
2022/04/01 03:27:14;;;;;;;5.78;3.80;;;;;;;;;;4997667;28;96212;-77
2022/04/01 03:29:41;;;;;;;4.45;4.15;;;;;;;;;;4997146;28;95750;-77
2022/04/01 03:32:10;;;;;;;4.10;3.78;;;;;;;;;;4997765;28;92390;-77
2022/04/01 03:34:38;;;;;;;3.85;3.55;;;;;;;;;;5000795;28;95246;-78
2022/04/01 03:37:05;;;;;;;4.72;4.32;;;;;;;;;;4998142;28;91662;-77
2022/04/01 03:39:34;;;;;;;3.50;3.20;;;;;;;;;;4997624;28;95110;-78
2022/04/01 03:42:06;;;;;;;3.85;3.55;;;;;;;;;;4996714;28;93699;-77
2022/04/01 03:44:37;;;;;;;6.28;4.32;;;;;;;;;;4995916;28;94722;-79
2022/04/01 03:47:26;;;;;;;3.40;3.20;;;;;;;;;;4997914;28;95899;-77
2022/04/01 03:49:58;;;;;;;4.18;3.85;;;;;;;;;;4997434;28;95498;-78
2022/04/01 03:52:26;;;;;;;4.15;3.85;;;;;;;;;;4997375;28;92362;-78
2022/04/01 03:54:54;;;;;;;4.70;4.03;;;;;;;;;;4997403;28;96345;-78
2022/04/01 03:57:42;;;;;;;5.93;4.53;;;;;;;;;;5000286;28;92595;-77
2022/04/01 04:00:29;;;;;;;5.25;4.68;;;;;;;;;;4999012;28;94574;-77
2022/04/01 04:02:57;;;;;;;4.68;4.28;;;;;;;;;;4998043;28;94462;-77
2022/04/01 04:05:27;;;;;;;5.18;4.68;;;;;;;;;;4997587;28;92350;-78
2022/04/01 04:07:55;;;;;;;7.78;4.63;;;;;;;;;;4996295;28;95705;-77
2022/04/01 04:10:27;;;;;;;4.20;3.80;;;;;;;;;;4995466;28;98244;-77
2022/04/01 04:13:12;;;;;;;4.53;4.10;;;;;;;;;;5000426;28;93305;-78
2022/04/01 04:16:08;;;;;;;5.25;4.20;;;;;;;;;;5007675;28;95282;-78
2022/04/01 04:18:43;;;;;;;5.45;4.53;;;;;;;;;;4994949;28;93387;-78
2022/04/01 04:21:15;;;;;;;5.00;4.03;;;;;;;;;;5007032;28;92371;-78
2022/04/01 04:23:44;;;;;;;5.47;4.80;;;;;;;;;;5002753;28;95210;-78
2022/04/01 04:26:13;;;;;;;6.97;4.40;;;;;;;;;;4981526;28;92381;-78
2022/04/01 04:28:47;;;;;;;6.30;4.05;;;;;;;;;;4998060;28;95879;-79
2022/04/01 04:31:37;;;;;;;4.93;4.45;;;;;;;;;;4994520;28;92715;-78
2022/04/01 04:34:11;;;;;;;4.82;4.38;;;;;;;;;;4996865;28;92416;-77
2022/04/01 04:36:39;;;;;;;5.15;4.65;;;;;;;;;;4996711;28;94767;-77
2022/04/01 04:39:08;;;;;;;5.20;4.80;;;;;;;;;;4996815;28;95361;-78
2022/04/01 04:41:36;;;;;;;5.32;4.82;;;;;;;;;;4980733;28;92366;-78
2022/04/01 04:44:06;;;;;;;4.88;4.47;;;;;;;;;;4999778;28;94326;-78
2022/04/01 04:46:34;;;;;;;5.00;4.50;;;;;;;;;;4996787;28;92444;-78
2022/04/01 04:49:01;;;;;;;5.20;4.40;;;;;;;;;;4996787;28;95219;-77
2022/04/01 04:51:28;;;;;;;9.05;4.72;;;;;;;;;;4996344;28;96479;-77
2022/04/01 04:54:21;;;;;;;5.05;4.65;;;;;;;;;;4986920;28;91660;-78
2022/04/01 04:57:08;;;;;;;5.18;4.43;;;;;;;;;;4996717;28;93454;-78
2022/04/01 04:59:35;;;;;;;5.20;4.50;;;;;;;;;;4996560;28;96025;-77
2022/04/01 05:02:07;;;;;;;6.05;4.43;;;;;;;;;;4995072;28;94879;-77
2022/04/01 05:04:59;;;;;;;4.63;4.22;;;;;;;;;;5000499;28;95082;-77
2022/04/01 05:07:32;;;;;;;;;;;;;;;;;;4996405;28;92635;-78
2022/04/01 05:10:24;;;;;;;5.80;4.28;;;;;;;;;;4996056;28;92397;-77
2022/04/01 05:12:56;;;;;;;6.72;4.90;;;;;;;;;;4997400;28;93461;-77
2022/04/01 05:15:36;;;;;;;4.47;4.07;;;;;;;;;;4996419;28;92461;-80
2022/04/01 05:18:05;;;;;;;5.38;4.85;;;;;;;;;;4995838;28;95719;-78
2022/04/01 05:20:38;;;;;;;4.80;4.20;;;;;;;;;;4980497;28;95436;-78
2022/04/01 05:23:11;;;;;;;5.63;4.70;;;;;;;;;;4996248;28;92374;-78
2022/04/01 05:25:40;;;;;;;5.20;4.70;;;;;;;;;;4996135;28;95880;-77
2022/04/01 05:28:29;;;;;;;4.45;4.13;;;;;;;;;;4997006;28;97662;-77
2022/04/01 05:31:18;;;;;;;4.63;4.23;;;;;;;;;;4996101;28;97739;-78
2022/04/01 05:33:58;;;;;;;5.35;4.38;;;;;;;;;;4995858;28;96079;-78
2022/04/01 05:36:27;;;;;;;5.50;5.00;;;;;;;;;;4996175;28;92462;-77
2022/04/01 05:38:56;;;;;;;6.60;4.50;;;;;;;;;;4995542;28;94933;-79
2022/04/01 05:41:23;;;;;;;4.80;4.32;;;;;;;;;;4996762;28;92906;-78
2022/04/01 05:43:50;;;;;;;5.43;4.18;;;;;;;;;;4996155;28;92307;-79
2022/04/01 05:46:25;;;;;;;4.15;3.75;;;;;;;;;;4996167;28;94998;-77
2022/04/01 05:48:56;;;;;;;5.73;3.83;;;;;;;;;;4979583;28;94163;-77
2022/04/01 05:51:24;;;;;;;5.88;4.22;;;;;;;;;;4998620;28;92312;-79
2022/04/01 05:53:53;;;;;;;6.53;4.10;;;;;;;;;;4993952;28;98218;-78
2022/04/01 05:56:22;;;;;;;4.72;4.32;;;;;;;;;;4996100;28;92369;-77
2022/04/01 05:58:51;;;;;;;4.22;3.90;;;;;;;;;;4995808;28;95334;-78
2022/04/01 06:01:20;;;;;;;5.15;3.83;;;;;;;;;;4996418;28;92423;-78
2022/04/01 06:03:47;;;;;;;7.43;4.43;;;;;;;;;;4995755;28;92390;-78
2022/04/01 06:06:29;;;;;;;6.05;4.20;;;;;;;;;;4996019;28;94863;-79
2022/04/01 06:09:02;;;;;;;5.25;4.40;;;;;;;;;;4995707;28;95525;-80
2022/04/01 06:12:00;;;;;;;3.88;3.53;;;;;;;;;;4996737;28;91524;-78
2022/04/01 06:14:55;;;;;;;5.63;3.83;;;;;;;;;;4997382;28;92281;-78
2022/04/01 06:18:12;;;;;;;3.92;3.60;;;;;;;;;;4995434;28;92286;-76
2022/04/01 06:20:41;;;;;;;15.55;4.55;;;;;;;;;;4971253;28;94982;-78
2022/04/01 06:23:15;;;;;;;4.05;3.65;;;;;;;;;;4994962;28;95540;-78
2022/04/01 06:25:45;;;;;;;6.70;3.42;;;;;;;;;;4995024;28;92274;-77
2022/04/01 06:28:28;;;;;;;4.95;4.13;;;;;;;;;;4995207;28;92962;-78
2022/04/01 06:31:02;;;;;;;4.60;3.90;;;;;;;;;;4994829;28;95189;-78
2022/04/01 06:33:45;;;;;;;4.13;3.80;;;;;;;;;;4998736;28;92413;-75
2022/04/01 06:36:49;;;;;;;5.50;4.00;;;;;;;;;;4999533;28;93536;-75
2022/04/01 06:39:28;;;;;;;7.68;4.40;;;;;;;;;;5001455;28;94708;-76
2022/04/01 06:41:57;;;;;;;9.55;3.90;;;;;;;;;;4998334;28;95012;-77
2022/04/01 06:44:42;;;;;;;4.15;3.75;;;;;;;;;;4998101;28;93616;-76
2022/04/01 06:47:08;;;;;;;4.32;3.55;;;;;;;;;;4996789;28;94787;-75
2022/04/01 06:49:36;;;;;;;9.48;3.13;;;;;;;;;;4998307;28;96960;-75
2022/04/01 06:52:24;;;;;;;5.32;2.67;;;;;;;;;;4998795;28;94663;-76
2022/04/01 06:55:11;;;;;;;4.40;3.22;;;;;;;;;;4999072;28;93331;-77
2022/04/01 06:57:43;;;;;;;4.55;3.28;;;;;;;;;;4998959;28;93032;-75
2022/04/01 07:00:12;;;;;;;4.35;2.80;;;;;;;;;;4998655;28;93389;-78
2022/04/01 07:02:40;;;;;;;3.13;2.83;;;;;;;;;;4984568;28;92281;-76
2022/04/01 07:05:07;;;;;;;9.55;3.67;;;;;;;;;;4999460;28;93300;-78
2022/04/01 07:07:33;;;;;;;4.13;3.20;;;;;;;;;;4999301;28;92303;-75
2022/04/01 07:10:00;;;;;;;3.88;3.00;;;;;;;;;;4999243;28;93436;-75
2022/04/01 07:12:26;;;;;;;4.97;3.08;;;;;;;;;;4997371;28;95504;-76
2022/04/01 07:14:53;;;;;;;4.78;2.88;;;;;;;;;;4998650;28;92320;-77
2022/04/01 07:17:22;;;;;;;3.58;3.20;;;;;;;;;;4999158;28;93892;-80
2022/04/01 07:19:48;;;;;;;3.40;3.10;;;;;;;;;;4999031;28;93677;-75
2022/04/01 07:22:15;;;;;;;5.40;3.28;;;;;;;;;;5002201;28;92166;-77
2022/04/01 07:24:41;;;;;;;6.03;3.40;;;;;;;;;;4998834;28;93246;-75
2022/04/01 07:27:08;;;;;;;4.53;3.30;;;;;;;;;;4998687;28;92283;-75
2022/04/01 07:29:34;;;;;;;5.38;3.42;;;;;;;;;;4998944;28;93330;-75
2022/04/01 07:34:48;;;;;;;2.88;2.58;;;;;;;;;;4998897;28;92149;-74
2022/04/01 07:37:24;;;;;;;6.60;2.60;;;;;;;;;;4997159;28;94757;-75
2022/04/01 07:40:12;;;;;;;2.97;2.60;;;;;;;;;;4998627;28;93537;-76
2022/04/01 07:42:39;;;;;;;2.75;2.25;;;;;;;;;;4998195;28;92294;-75
2022/04/01 07:45:06;;;;;;;3.03;2.05;;;;;;;;;;5001170;28;92619;-76
2022/04/01 07:47:33;;;;;;;2.33;2.13;;;;;;;;;;4998231;28;92488;-76
2022/04/01 07:50:01;;;;;;;2.20;2.10;;;;;;;;;;4998740;28;93297;-74
2022/04/01 07:52:29;;;;;;;2.30;2.00;;;;;;;;;;4996736;28;94837;-74
2022/04/01 07:54:55;;;;;;;2.15;1.95;;;;;;;;;;4998995;28;91648;-76
2022/04/01 07:57:22;;;;;;;3.35;2.15;;;;;;;;;;4998657;28;93063;-75
2022/04/01 07:59:48;;;;;;;4.85;2.15;;;;;;;;;;4998747;28;93165;-75
2022/04/01 08:02:15;;;;;;;5.30;1.83;;;;;;;;;;4996644;28;95614;-75
2022/04/01 08:04:41;;;;;;;5.03;2.63;;;;;;;;;;4998632;28;95978;-74
2022/04/01 08:07:13;;;;;;;1.88;1.77;;;;;;;;;;5001084;28;93601;-72
2022/04/01 08:09:39;;;;;;;2.35;1.55;;;;;;;;;;4998429;28;93686;-73
2022/04/01 08:12:08;;;;;;;1.42;1.33;;;;;;;;;;4998326;28;93549;-72
2022/04/01 08:14:37;;;;;;;1.83;1.55;;;;;;;;;;4998009;28;92163;-74
2022/04/01 08:17:04;;;;;;;3.22;1.58;;;;;;;;;;4998248;28;92730;-71
2022/04/01 08:19:31;;;;;;;4.88;1.13;;;;;;;;;;4998481;28;92495;-72
2022/04/01 08:21:58;;;;;;;3.03;1.98;;;;;;;;;;4998157;28;92298;-73
2022/04/01 08:24:24;;;;;;;2.58;1.75;;;;;;;;;;4997802;28;95032;-73
2022/04/01 08:26:51;;;;;;;3.60;1.75;;;;;;;;;;4996115;28;96248;-73
2022/04/01 08:29:17;;;;;;;2.30;1.58;;;;;;;;;;5001014;28;92743;-73
2022/04/01 08:31:43;;;;;;;1.65;1.50;;;;;;;;;;4996513;28;93544;-72
2022/04/01 08:34:10;;;;;;;1.30;1.20;;;;;;;;;;4997325;28;92333;-73
2022/04/01 08:36:36;;;;;;;3.45;1.50;;;;;;;;;;4997903;28;93716;-71
2022/04/01 08:39:03;;;;;;;7.95;1.30;;;;;;;;;;4997500;28;93860;-73
2022/04/01 08:41:29;;;;;;;1.00;1.00;;;;;;;;;;4978744;28;92493;-72
2022/04/01 08:43:55;;;;;;;2.90;1.70;;;;;;;;;;4997850;28;94178;-72
2022/04/01 08:46:22;;;;;;;1.40;1.30;;;;;;;;;;4997208;28;93956;-72
2022/04/01 08:48:50;;;;;;;4.38;1.80;;;;;;;;;;4997180;28;92354;-71
2022/04/01 08:51:18;;;;;;;1.55;1.40;;;;;;;;;;4999066;28;94663;-73
2022/04/01 08:53:45;;;;;;;2.47;1.80;;;;;;;;;;4997681;28;92152;-73
2022/04/01 08:56:12;;;;;;;2.53;1.70;;;;;;;;;;4997337;28;93865;-73
2022/04/01 08:58:38;;;;;;;1.45;1.35;;;;;;;;;;4996087;28;94176;-73
2022/04/01 09:01:05;;;;;;;1.42;1.23;;;;;;;;;;4997386;28;92384;-73
2022/04/01 09:03:33;;;;;;;4.97;1.40;;;;;;;;;;4996994;28;93706;-75
2022/04/01 09:06:02;;;;;;;4.53;1.80;;;;;;;;;;4997256;28;93494;-74
2022/04/01 09:08:35;;;;;;;2.55;1.50;;;;;;;;;;4996825;28;92246;-75
2022/04/01 09:11:03;;;;;;;3.20;1.65;;;;;;;;;;4997585;28;93244;-73
2022/04/01 09:13:31;;;;;;;3.63;2.22;;;;;;;;;;5000439;28;93834;-75
2022/04/01 09:15:57;;;;;;;3.80;2.33;;;;;;;;;;4995456;28;94722;-75
2022/04/01 09:18:38;;;;;;;2.28;2.13;;;;;;;;;;4997453;28;93090;-73
2022/04/01 09:21:07;;;;;;;3.92;2.03;;;;;;;;;;4997482;28;92168;-76
2022/04/01 09:23:34;;;;;;;3.08;1.77;;;;;;;;;;4997318;28;93682;-75
2022/04/01 09:26:01;;;;;;;2.83;1.52;;;;;;;;;;4997051;28;93596;-75
2022/04/01 09:28:34;;;;;;;1.48;1.42;;;;;;;;;;4997067;28;92361;-77
2022/04/01 09:31:06;;;;;;;1.73;1.63;;;;;;;;;;4997231;28;92916;-75
2022/04/01 09:33:54;;;;;;;2.45;2.05;;;;;;;;;;5000764;28;92767;-75
2022/04/01 09:36:25;;;;;;;1.73;1.63;;;;;;;;;;4997435;28;92549;-76
2022/04/01 09:38:52;;;;;;;4.07;2.03;;;;;;;;;;4995217;28;95055;-76
2022/04/01 09:41:19;;;;;;;9.18;2.15;;;;;;;;;;4995403;28;94703;-76
2022/04/01 09:44:17;;;;;;;1.95;1.85;;;;;;;;;;4997744;28;95649;-76
2022/04/01 09:46:48;;;;;;;6.47;1.90;;;;;;;;;;5005349;28;93051;-75
2022/04/01 09:49:48;;;;;;;2.35;2.22;;;;;;;;;;5004189;28;92237;-74
2022/04/01 09:52:20;;;;;;;2.95;2.50;;;;;;;;;;4984125;28;94976;-76
2022/04/01 09:54:51;;;;;;;7.10;2.10;;;;;;;;;;5008391;28;92162;-77
2022/04/01 09:57:18;;;;;;;2.63;2.42;;;;;;;;;;5006157;28;92180;-78
2022/04/01 09:59:46;;;;;;;3.75;2.42;;;;;;;;;;4998190;28;91742;-77
2022/04/01 10:02:12;;;;;;;9.57;2.42;;;;;;;;;;4998450;28;92364;-79
2022/04/01 10:04:40;;;;;;;2.75;2.33;;;;;;;;;;4997360;28;92296;-77
2022/04/01 10:07:06;;;;;;;5.05;2.88;;;;;;;;;;4995990;28;98367;-76
2022/04/01 10:09:33;;;;;;;2.67;2.47;;;;;;;;;;5000080;28;92288;-76
2022/04/01 10:12:23;;;;;;;7.03;3.45;;;;;;;;;;4998673;28;94819;-76
2022/04/01 10:14:54;;;;;;;11.43;3.15;;;;;;;;;;5000408;28;93002;-76
2022/04/01 10:17:25;;;;;;;7.47;2.80;;;;;;;;;;5000203;28;92370;-74
2022/04/01 10:19:53;;;;;;;3.17;2.88;;;;;;;;;;5002960;28;94380;-76
2022/04/01 10:22:20;;;;;;;3.13;2.78;;;;;;;;;;5000335;28;92234;-75
2022/04/01 10:24:50;;;;;;;3.15;2.58;;;;;;;;;;5000063;28;93571;-73
2022/04/01 10:27:34;;;;;;;2.83;2.63;;;;;;;;;;4999803;28;93702;-76
2022/04/01 10:30:00;;;;;;;3.53;3.22;;;;;;;;;;5000044;28;92188;-75
2022/04/01 10:32:28;;;;;;;3.92;3.45;;;;;;;;;;4998478;28;94730;-74
2022/04/01 10:34:59;;;;;;;3.42;3.13;;;;;;;;;;4999549;28;93516;-74
2022/04/01 10:37:32;;;;;;;3.85;3.55;;;;;;;;;;5000075;28;92311;-74
2022/04/01 10:40:04;;;;;;;4.25;3.88;;;;;;;;;;4999406;28;94835;-74
2022/04/01 10:42:31;;;;;;;4.70;4.30;;;;;;;;;;5002335;28;94646;-76
2022/04/01 10:45:00;;;;;;;4.28;3.80;;;;;;;;;;4998679;28;95078;-76
2022/04/01 10:53:38;;;;;;;5.93;4.32;;;;;;;;;;4999567;28;92814;-77
2022/04/01 10:56:22;;;;;;;4.88;4.40;;;;;;;;;;4999148;28;93610;-76
2022/04/01 10:59:08;;;;;;;4.55;4.15;;;;;;;;;;4998106;28;94548;-76
2022/04/01 11:02:01;;;;;;;8.82;4.32;;;;;;;;;;4999372;28;95387;-75
2022/04/01 11:04:29;;;;;;;5.28;4.70;;;;;;;;;;4998856;28;93737;-75
2022/04/01 11:07:14;;;;;;;6.30;4.65;;;;;;;;;;5002819;28;92293;-76
2022/04/01 11:09:47;;;;;;;9.95;5.05;;;;;;;;;;4999438;28;93048;-76
2022/04/01 11:12:20;;;;;;;4.60;4.20;;;;;;;;;;4999550;28;92393;-77
2022/04/01 11:17:37;;;;;;;5.88;4.93;;;;;;;;;;4999660;28;93124;-76
2022/04/01 11:20:14;;;;;;;4.90;4.53;;;;;;;;;;4999241;28;92219;-75
2022/04/01 11:22:47;;;;;;;4.93;4.53;;;;;;;;;;4999135;28;93750;-76
2022/04/01 11:25:38;;;;;;;4.68;4.20;;;;;;;;;;4996636;28;95821;-75
2022/04/01 11:28:08;;;;;;;9.82;4.70;;;;;;;;;;4999163;28;92334;-76
2022/04/01 11:30:41;;;;;;;7.50;5.18;;;;;;;;;;5002050;28;93371;-75
2022/04/01 11:33:09;;;;;;;8.32;5.07;;;;;;;;;;4999312;28;92245;-75
2022/04/01 11:35:39;;;;;;;6.57;5.57;;;;;;;;;;4998875;28;93106;-76
2022/04/01 11:38:07;;;;;;;6.05;5.55;;;;;;;;;;4999050;28;93523;-76
2022/04/01 11:40:36;;;;;;;7.63;5.63;;;;;;;;;;4999084;28;92270;-78
2022/04/01 11:43:07;;;;;;;7.00;5.05;;;;;;;;;;4999603;28;92897;-75
2022/04/01 11:45:38;;;;;;;6.80;4.75;;;;;;;;;;4999582;28;93060;-75
2022/04/01 11:48:13;;;;;;;16.83;5.85;;;;;;;;;;4998418;28;92342;-76
2022/04/01 11:50:43;;;;;;;7.22;6.18;;;;;;;;;;5000098;28;94746;-77
2022/04/01 11:53:17;;;;;;;7.78;5.72;;;;;;;;;;4999047;28;92300;-77
2022/04/01 11:55:46;;;;;;;7.68;5.30;;;;;;;;;;4999077;28;93788;-77
2022/04/01 11:58:12;;;;;;;10.50;5.72;;;;;;;;;;4999007;28;94022;-75
2022/04/01 12:00:39;;;;;;;5.63;5.00;;;;;;;;;;4997589;28;92981;-75
2022/04/01 12:03:08;;;;;;;6.05;5.55;;;;;;;;;;4998470;28;93596;-75
2022/04/01 12:05:34;;;;;;;5.60;5.07;;;;;;;;;;4998175;28;95639;-77
2022/04/01 12:10:55;;;;;;;6.22;5.63;;;;;;;;;;4982752;28;92539;-77
2022/04/01 12:13:23;;;;;;;7.28;5.85;;;;;;;;;;5001029;28;93700;-76
2022/04/01 12:15:50;;;;;;;8.55;6.00;;;;;;;;;;4996755;28;95780;-73
2022/04/01 12:18:22;;;;;;;6.30;5.70;;;;;;;;;;4998147;28;94110;-76
2022/04/01 12:20:49;;;;;;;7.40;6.38;;;;;;;;;;4998388;28;92187;-76
2022/04/01 12:23:17;;;;;;;10.05;7.05;;;;;;;;;;4998429;28;92899;-80
2022/04/01 12:25:44;;;;;;;6.45;4.72;;;;;;;;;;4997791;28;93171;-77
2022/04/01 12:28:15;;;;;;;6.25;5.47;;;;;;;;;;4998171;28;92238;-76
2022/04/01 12:30:42;;;;;;;;;;;;;;;;;;4997727;28;93919;-77
2022/04/01 12:33:15;;;;;;;7.15;5.72;;;;;;;;;;4997649;28;121550;-75
2022/04/01 12:35:49;;;;;;;6.97;6.22;;;;;;;;;;5001369;28;92302;-76
2022/04/01 12:38:16;;;;;;;7.50;6.18;;;;;;;;;;4996757;28;93690;-72
2022/04/01 12:40:46;;;;;;;6.10;5.57;;;;;;;;;;4995188;28;95566;-72
2022/04/01 12:43:28;;;;;;;8.57;5.93;;;;;;;;;;4997608;28;95901;-74
2022/04/01 12:46:03;;;;;;;6.75;6.13;;;;;;;;;;4992278;28;94619;-73
2022/04/01 12:48:30;;;;;;;8.65;5.88;;;;;;;;;;4993952;28;92315;-74
2022/04/01 12:51:03;;;;;;;7.43;6.63;;;;;;;;;;4997561;28;93345;-72
2022/04/01 12:53:31;;;;;;;6.57;5.97;;;;;;;;;;4997715;28;93060;-71
2022/04/01 12:56:17;;;;;;;9.05;6.25;;;;;;;;;;4993398;28;92359;-71
2022/04/01 12:58:50;;;;;;;6.13;5.53;;;;;;;;;;4998661;28;93308;-72
2022/04/01 13:01:20;;;;;;;15.52;6.60;;;;;;;;;;4996959;28;92215;-72
2022/04/01 13:03:50;;;;;;;6.43;5.80;;;;;;;;;;4996864;28;93281;-72
2022/04/01 13:06:17;;;;;;;6.50;5.50;;;;;;;;;;4994844;28;96323;-73
2022/04/01 13:08:44;;;;;;;6.70;4.50;;;;;;;;;;4996209;28;92410;-72
2022/04/01 13:11:11;;;;;;;5.07;4.60;;;;;;;;;;4996263;28;93289;-72
2022/04/01 13:13:37;;;;;;;5.03;4.22;;;;;;;;;;4996853;28;93031;-72
2022/04/01 13:16:04;;;;;;;5.68;3.85;;;;;;;;;;4997029;28;92335;-72
2022/04/01 13:18:32;;;;;;;7.53;4.43;;;;;;;;;;4996187;28;93356;-73
2022/04/01 13:20:59;;;;;;;4.57;3.55;;;;;;;;;;4999567;28;93651;-72
2022/04/01 13:23:28;;;;;;;5.43;4.38;;;;;;;;;;4995881;28;94731;-73
2022/04/01 13:25:54;;;;;;;7.63;4.20;;;;;;;;;;4996436;28;93625;-72
2022/04/01 13:28:21;;;;;;;3.67;3.38;;;;;;;;;;4995897;28;92941;-73
2022/04/01 13:30:47;;;;;;;4.18;3.70;;;;;;;;;;4995116;28;94523;-74
2022/04/01 13:33:15;;;;;;;6.95;4.00;;;;;;;;;;4996650;28;93670;-72
2022/04/01 13:35:43;;;;;;;3.22;3.00;;;;;;;;;;4996771;28;92190;-75
2022/04/01 13:38:09;;;;;;;3.70;2.78;;;;;;;;;;4992535;28;92454;-72
2022/04/01 13:40:36;;;;;;;3.47;3.28;;;;;;;;;;4990972;28;94533;-72
2022/04/01 13:43:03;;;;;;;3.42;3.13;;;;;;;;;;5002259;28;92509;-72
2022/04/01 13:45:39;;;;;;;3.00;2.80;;;;;;;;;;4999835;28;94191;-72
2022/04/01 13:48:07;;;;;;;4.65;2.75;;;;;;;;;;4999937;28;92390;-75
2022/04/01 13:50:34;;;;;;;3.55;2.72;;;;;;;;;;5000070;28;92855;-74
2022/04/01 13:53:01;;;;;;;2.80;2.42;;;;;;;;;;5000063;28;94085;-74
2022/04/01 13:55:27;;;;;;;2.80;2.60;;;;;;;;;;4993280;28;95681;-74
2022/04/01 13:57:59;;;;;;;3.55;2.85;;;;;;;;;;4999802;28;95264;-76
2022/04/01 14:00:26;;;;;;;3.35;2.78;;;;;;;;;;4999472;28;94156;-74
2022/04/01 14:02:53;;;;;;;2.85;2.58;;;;;;;;;;5003138;28;92243;-76
2022/04/01 14:05:19;;;;;;;4.07;2.60;;;;;;;;;;4998996;28;94388;-76
2022/04/01 14:07:51;;;;;;;2.33;2.22;;;;;;;;;;4996438;28;92241;-77
2022/04/01 14:10:18;;;;;;;2.33;1.98;;;;;;;;;;4996146;28;93938;-74
2022/04/01 14:12:45;;;;;;;3.10;2.88;;;;;;;;;;5000261;28;92490;-76
2022/04/01 14:15:11;;;;;;;2.65;2.45;;;;;;;;;;4999612;28;92800;-76
2022/04/01 14:17:38;;;;;;;2.42;2.15;;;;;;;;;;4999456;28;93112;-74
2022/04/01 14:20:05;;;;;;;2.08;1.98;;;;;;;;;;4997408;28;95260;-75
2022/04/01 14:22:32;;;;;;;2.35;2.15;;;;;;;;;;4999093;28;92443;-76
2022/04/01 14:24:58;;;;;;;3.80;2.10;;;;;;;;;;5001063;28;96219;-76
2022/04/01 14:27:24;;;;;;;1.90;1.80;;;;;;;;;;4999582;28;92383;-74
2022/04/01 14:32:40;;;;;;;1.83;1.73;;;;;;;;;;4999443;28;92167;-77
2022/04/01 14:35:13;;;;;;;3.30;1.95;;;;;;;;;;4994304;28;92610;-75
2022/04/01 14:37:41;;;;;;;4.60;2.33;;;;;;;;;;4999735;28;92760;-75
2022/04/01 14:40:09;;;;;;;1.70;1.60;;;;;;;;;;4999896;28;93251;-75
2022/04/01 14:42:42;;;;;;;2.47;2.05;;;;;;;;;;4999454;28;92324;-79
2022/04/01 14:45:09;;;;;;;1.88;1.77;;;;;;;;;;4999319;28;94509;-80
2022/04/01 14:47:36;;;;;;;3.75;1.92;;;;;;;;;;5004914;28;95460;-82
2022/04/01 14:50:02;;;;;;;4.40;2.40;;;;;;;;;;5004491;28;93026;-79
2022/04/01 14:52:30;;;;;;;2.92;2.00;;;;;;;;;;4997825;28;94962;-75
2022/04/01 14:54:56;;;;;;;2.42;2.03;;;;;;;;;;5006822;28;92522;-75
2022/04/01 14:57:24;;;;;;;3.38;2.13;;;;;;;;;;4980503;28;93718;-76
2022/04/01 14:59:50;;;;;;;2.53;2.20;;;;;;;;;;4994846;28;92461;-74
2022/04/01 15:02:20;;;;;;;3.35;2.10;;;;;;;;;;4992240;28;91681;-76
2022/04/01 15:04:46;;;;;;;8.02;2.15;;;;;;;;;;4997661;28;92821;-76
2022/04/01 15:07:13;;;;;;;2.65;2.30;;;;;;;;;;4988929;28;93626;-77
2022/04/01 15:09:41;;;;;;;5.20;2.10;;;;;;;;;;4997365;28;94820;-75
2022/04/01 15:12:09;;;;;;;5.55;2.40;;;;;;;;;;4988477;28;94100;-74
2022/04/01 15:14:36;;;;;;;5.75;2.33;;;;;;;;;;4996622;28;92564;-76
2022/04/01 15:17:03;;;;;;;3.88;2.88;;;;;;;;;;4996337;28;94532;-74
2022/04/01 15:19:29;;;;;;;87.75;19.80;;;;;;;;;;4991569;28;93672;-75
2022/04/01 15:21:56;;;;;;;5.22;3.42;;;;;;;;;;4996345;28;92356;-77
2022/04/01 15:24:23;;;;;;;2.60;2.40;;;;;;;;;;4996574;28;92894;-75